Time;durP1;ratioP1;P1;durP2;ratioP2;P2;SDS_P1;SDS_P2;PMS_P1;PMS_P2;Temp;Humidity;BMP_temperature;BMP_pressure;BME280_temperature;BME280_humidity;BME280_pressure;Samples;Min_cycle;Max_cycle;Signal;HPM_P1;HPM_P2
2023/05/30 00:00:27;;;;;;;3.57;2.30;;;23.00;36.40;23.70;101648.00;;;;5010974;28;20202;-50
2023/05/30 00:02:53;;;;;;;3.07;2.40;;;23.00;36.60;23.70;101654.00;;;;5011121;28;20560;-50
2023/05/30 00:05:19;;;;;;;4.33;2.70;;;23.00;36.70;23.60;101654.00;;;;5009969;28;20203;-51
2023/05/30 00:07:44;;;;;;;3.17;2.40;;;23.00;36.70;23.60;101661.00;;;;5010963;28;20670;-50
2023/05/30 00:10:10;;;;;;;4.40;2.70;;;22.90;36.80;23.60;101659.00;;;;5010856;28;20214;-50
2023/05/30 00:12:36;;;;;;;3.00;2.20;;;22.90;36.90;23.60;101663.00;;;;5010597;28;20186;-50
2023/05/30 00:15:05;;;;;;;4.30;2.57;;;22.90;37.00;23.60;101661.00;;;;5010856;28;20179;-52
2023/05/30 00:17:32;;;;;;;4.00;3.00;;;22.90;37.30;23.60;101668.00;;;;5013459;28;20230;-52
2023/05/30 00:19:59;;;;;;;3.23;2.50;;;22.90;37.30;23.50;101664.00;;;;5014850;28;20546;-52
2023/05/30 00:22:25;;;;;;;3.40;2.40;;;22.90;37.10;23.50;101660.00;;;;5009437;28;20172;-52
2023/05/30 00:24:51;;;;;;;5.77;2.70;;;22.90;37.40;23.50;101662.00;;;;5010901;28;20215;-52
2023/05/30 00:27:17;;;;;;;4.63;2.40;;;22.90;37.50;23.50;101674.00;;;;5003075;28;20176;-52
2023/05/30 00:29:45;;;;;;;4.27;2.60;;;22.80;37.50;23.40;101668.00;;;;5010368;28;20199;-51
2023/05/30 00:32:11;;;;;;;4.07;2.63;;;22.80;37.40;23.40;101665.00;;;;5018039;28;20171;-51
2023/05/30 00:34:37;;;;;;;3.97;2.47;;;22.80;37.40;23.20;101599.00;;;;5016432;28;20183;-52
2023/05/30 00:37:05;;;;;;;4.00;2.70;;;22.80;37.50;23.40;101665.00;;;;5010686;28;20588;-51
2023/05/30 00:39:31;;;;;;;4.63;2.67;;;22.80;37.10;23.30;101664.00;;;;5010337;28;20195;-52
2023/05/30 00:41:57;;;;;;;4.00;2.70;;;22.70;36.90;23.30;101672.00;;;;5010115;28;20187;-52
2023/05/30 00:44:22;;;;;;;3.90;2.60;;;22.70;37.10;23.30;101670.00;;;;5009862;28;20654;-52
2023/05/30 00:46:50;;;;;;;4.47;2.70;;;22.70;37.10;23.30;101665.00;;;;5010020;28;20286;-51
2023/05/30 00:49:16;;;;;;;4.63;2.70;;;22.70;37.20;23.30;101665.00;;;;5008527;28;20218;-51
2023/05/30 00:51:42;;;;;;;3.33;2.50;;;22.70;37.40;23.20;101671.00;;;;4992830;28;20275;-51
2023/05/30 00:54:08;;;;;;;4.13;2.50;;;22.70;37.60;23.20;101670.00;;;;5009842;28;20195;-51
2023/05/30 00:56:34;;;;;;;4.20;2.80;;;22.70;37.20;23.20;101657.00;;;;5008506;28;20198;-50
2023/05/30 00:59:01;;;;;;;4.37;2.73;;;22.60;37.30;23.20;101675.00;;;;5008441;28;20204;-52
2023/05/30 01:01:27;;;;;;;5.00;2.60;;;22.60;37.30;23.20;101666.00;;;;5009809;28;20179;-51
2023/05/30 01:03:52;;;;;;;4.57;2.57;;;22.60;37.50;23.10;101579.00;;;;5008497;28;20218;-51
2023/05/30 01:06:20;;;;;;;3.57;2.60;;;22.60;37.60;23.10;101669.00;;;;5009504;28;20199;-50
2023/05/30 01:08:47;;;;;;;3.87;2.50;;;22.60;37.50;23.10;101662.00;;;;5008510;28;20843;-52
2023/05/30 01:11:59;;;;;;;5.13;2.90;;;22.50;37.60;23.00;101665.00;;;;5009530;28;20179;-51
2023/05/30 01:14:57;;;;;;;5.27;2.97;;;22.50;37.40;23.00;101664.00;;;;5008301;28;20661;-52
2023/05/30 01:17:54;;;;;;;5.10;2.67;;;22.50;37.10;23.00;101665.00;;;;5007188;28;20592;-52
2023/05/30 01:20:24;;;;;;;5.40;2.77;;;22.50;36.90;22.90;101662.00;;;;5012432;28;20199;-51
2023/05/30 01:23:36;;;;;;;5.13;2.77;;;22.50;36.90;22.90;101666.00;;;;5009697;28;20182;-52
2023/05/30 01:26:41;;;;;;;4.27;2.60;;;22.50;36.90;22.90;101661.00;;;;5007217;28;20237;-52
2023/05/30 01:29:09;;;;;;;4.60;2.63;;;22.40;36.90;22.80;101661.00;;;;4981268;28;20195;-52
2023/05/30 01:31:34;;;;;;;4.50;2.70;;;22.40;36.90;22.80;101659.00;;;;4975905;28;20262;-50
2023/05/30 01:34:03;;;;;;;5.47;2.90;;;22.40;36.80;22.80;101652.00;;;;4991469;28;20263;-50
2023/05/30 01:36:30;;;;;;;5.17;2.90;;;22.40;36.70;22.70;101659.00;;;;5007701;28;20554;-50
2023/05/30 01:38:56;;;;;;;5.17;2.77;;;22.30;36.30;22.70;101651.00;;;;5009154;28;20211;-50
2023/05/30 01:41:45;;;;;;;5.70;2.80;;;22.40;36.40;22.70;101648.00;;;;5009117;28;20175;-51
2023/05/30 01:45:01;;;;;;;3.10;2.40;;;22.30;36.40;22.70;101651.00;;;;5007747;28;20785;-50
2023/05/30 01:47:33;;;;;;;5.87;2.80;;;22.30;36.60;22.60;101665.00;;;;5007804;28;20199;-50
2023/05/30 01:50:14;;;;;;;4.80;2.93;;;22.20;36.70;22.60;101670.00;;;;4991839;28;20207;-52
2023/05/30 01:52:41;;;;;;;4.73;2.67;;;22.20;36.60;22.60;101666.00;;;;4976949;28;20175;-51
2023/05/30 01:55:08;;;;;;;5.13;2.73;;;22.20;37.50;22.60;101660.00;;;;5007632;28;20556;-51
2023/05/30 01:57:34;;;;;;;5.77;2.80;;;22.20;36.80;22.50;101666.00;;;;4991583;28;20193;-50
2023/05/30 02:00:00;;;;;;;5.50;3.07;;;22.20;36.70;22.50;101659.00;;;;4991435;28;20313;-51
2023/05/30 02:02:26;;;;;;;4.87;2.70;;;22.20;37.00;22.50;101673.00;;;;5007646;28;20187;-51
2023/05/30 02:04:52;;;;;;;4.63;2.70;;;22.10;36.70;22.50;101671.00;;;;5008556;28;20180;-50
2023/05/30 02:07:17;;;;;;;4.17;2.57;;;22.10;36.90;22.50;101670.00;;;;5008583;28;20790;-50
2023/05/30 02:09:43;;;;;;;5.93;3.03;;;22.10;37.10;22.40;101662.00;;;;5008806;28;20569;-50
2023/05/30 02:12:09;;;;;;;4.53;2.73;;;22.10;36.80;22.40;101673.00;;;;5007481;28;20195;-51
2023/05/30 02:14:36;;;;;;;4.93;2.80;;;22.10;36.90;22.40;101677.00;;;;5008552;28;20540;-51
2023/05/30 02:17:02;;;;;;;5.27;2.90;;;22.10;37.00;22.40;101667.00;;;;5014388;28;20187;-52
2023/05/30 02:19:29;;;;;;;5.87;2.70;;;22.00;37.20;22.30;101674.00;;;;5015879;28;20286;-51
2023/05/30 02:21:54;;;;;;;4.83;2.60;;;22.00;37.10;22.30;101675.00;;;;5008523;28;20183;-51
2023/05/30 02:24:22;;;;;;;6.20;2.97;;;22.00;37.10;22.30;101672.00;;;;5008350;28;20796;-51
2023/05/30 02:26:48;;;;;;;3.93;2.67;;;21.90;37.20;22.30;101673.00;;;;5008148;28;20199;-50
2023/05/30 02:29:14;;;;;;;7.17;3.10;;;21.90;37.10;22.20;101621.00;;;;5008256;28;20427;-53
2023/05/30 02:31:39;;;;;;;5.43;2.93;;;21.90;37.20;22.00;101676.00;;;;5014202;28;20195;-50
2023/05/30 02:34:05;;;;;;;5.63;2.73;;;21.90;37.20;22.20;101680.00;;;;5011987;28;20195;-50
2023/05/30 02:36:32;;;;;;;5.37;3.00;;;21.80;37.30;22.10;101666.00;;;;5008125;28;20194;-51
2023/05/30 02:39:06;;;;;;;5.13;2.90;;;21.80;37.30;22.10;101679.00;;;;5008117;28;20231;-51
2023/05/30 02:41:33;;;;;;;6.13;2.83;;;21.80;37.50;22.10;101672.00;;;;5008210;28;20527;-50
2023/05/30 02:43:58;;;;;;;5.73;3.03;;;21.80;37.50;22.00;101675.00;;;;5008081;28;20732;-50
2023/05/30 02:46:24;;;;;;;5.40;2.70;;;21.70;37.50;22.00;101680.00;;;;5008210;28;20215;-51
2023/05/30 02:48:50;;;;;;;6.83;3.00;;;21.70;37.60;21.90;101665.00;;;;5007939;28;20790;-52
2023/05/30 02:51:15;;;;;;;5.87;2.97;;;21.70;37.70;21.90;101669.00;;;;5008045;28;20235;-50
2023/05/30 02:53:41;;;;;;;6.53;3.00;;;21.60;37.80;21.90;101672.00;;;;5007957;28;20210;-49
2023/05/30 02:56:07;;;;;;;5.90;3.00;;;21.60;38.10;21.80;101673.00;;;;5008161;28;20246;-50
2023/05/30 02:58:33;;;;;;;5.57;3.10;;;21.60;38.00;21.80;101660.00;;;;5008091;28;20218;-50
2023/05/30 03:00:58;;;;;;;7.67;3.33;;;21.60;38.20;21.80;101670.00;;;;5008232;28;20190;-50
2023/05/30 03:03:25;;;;;;;6.57;3.03;;;21.50;38.30;21.80;101674.00;;;;5009849;28;20203;-52
2023/05/30 03:05:51;;;;;;;6.20;3.07;;;21.50;38.40;21.80;101658.00;;;;5012078;28;20297;-49
2023/05/30 03:08:17;;;;;;;7.33;3.20;;;21.50;38.60;21.70;101663.00;;;;5008266;28;20187;-49
2023/05/30 03:10:42;;;;;;;6.73;3.00;;;21.50;39.10;21.70;101665.00;;;;5008358;28;20179;-50
2023/05/30 03:13:09;;;;;;;3.53;2.57;;;21.50;39.00;21.70;101659.00;;;;5008188;28;20179;-50
2023/05/30 03:15:34;;;;;;;6.17;2.90;;;21.50;39.00;21.70;101663.00;;;;5007979;28;20210;-50
2023/05/30 03:18:00;;;;;;;6.27;3.00;;;21.50;39.20;21.70;101660.00;;;;5007819;28;20195;-50
2023/05/30 03:20:28;;;;;;;5.93;2.93;;;21.50;39.30;21.70;101591.00;;;;5008211;28;20187;-51
2023/05/30 03:22:53;;;;;;;5.20;2.80;;;21.50;39.50;21.70;101655.00;;;;5008178;28;20286;-51
2023/05/30 03:25:19;;;;;;;5.47;2.90;;;21.40;39.40;21.70;101652.00;;;;5008025;28;20287;-51
2023/05/30 03:27:50;;;;;;;5.47;2.80;;;21.40;39.50;21.70;101660.00;;;;5008110;28;20186;-49
2023/05/30 03:30:17;;;;;;;4.77;2.73;;;21.40;39.60;21.60;101666.00;;;;5007980;28;20199;-51
2023/05/30 03:32:42;;;;;;;5.17;3.00;;;21.40;39.70;21.60;101666.00;;;;5007940;28;20168;-51
2023/05/30 03:35:08;;;;;;;5.87;2.80;;;21.40;39.90;21.60;101660.00;;;;5007706;28;20560;-51
2023/05/30 03:37:34;;;;;;;4.17;2.60;;;21.40;39.90;21.60;101666.00;;;;5007824;28;20184;-50
2023/05/30 03:40:00;;;;;;;4.20;2.73;;;21.30;39.90;21.60;101673.00;;;;5010143;28;20203;-51
2023/05/30 03:42:26;;;;;;;4.43;2.53;;;21.40;40.00;21.50;101679.00;;;;5013501;28;20206;-51
2023/05/30 03:44:51;;;;;;;4.10;2.70;;;21.30;40.10;21.50;101671.00;;;;5011816;28;20188;-50
2023/05/30 03:47:17;;;;;;;4.50;2.70;;;21.30;40.10;21.50;101684.00;;;;5012218;28;20172;-51
2023/05/30 03:49:43;;;;;;;4.50;2.90;;;21.30;40.30;21.50;101672.00;;;;5011521;28;20265;-51
2023/05/30 03:52:09;;;;;;;3.57;2.40;;;21.20;40.20;21.50;101678.00;;;;5012532;28;20179;-51
2023/05/30 03:54:34;;;;;;;4.27;2.50;;;21.20;40.30;21.40;101668.00;;;;5011870;28;20738;-50
2023/05/30 03:57:00;;;;;;;3.67;2.57;;;21.20;40.50;21.40;101679.00;;;;5011929;28;20213;-51
2023/05/30 03:59:26;;;;;;;3.93;2.60;;;21.10;40.60;21.40;101687.00;;;;5012223;28;20217;-51
2023/05/30 04:01:51;;;;;;;4.07;2.63;;;21.10;40.80;21.40;101676.00;;;;5012268;28;20253;-50
2023/05/30 04:04:17;;;;;;;4.37;2.43;;;21.10;41.00;21.40;101682.00;;;;5011531;28;20191;-51
2023/05/30 04:06:43;;;;;;;4.43;2.70;;;21.10;41.20;21.40;101684.00;;;;5011967;28;20312;-51
2023/05/30 04:09:09;;;;;;;4.00;2.77;;;21.00;41.20;21.30;101680.00;;;;5012322;28;20619;-51
2023/05/30 04:11:34;;;;;;;3.90;2.20;;;21.00;41.40;21.30;101682.00;;;;5011620;28;20183;-51
2023/05/30 04:14:00;;;;;;;4.30;2.40;;;21.00;41.60;21.30;101683.00;;;;5012262;28;20179;-51
2023/05/30 04:16:26;;;;;;;3.20;2.40;;;21.00;41.80;21.30;101687.00;;;;5011382;28;20218;-51
2023/05/30 04:18:51;;;;;;;6.10;2.83;;;20.90;42.00;21.30;101697.00;;;;5013161;28;20200;-51
2023/05/30 04:21:17;;;;;;;4.60;2.37;;;20.90;42.10;21.30;101700.00;;;;5011912;28;20186;-50
2023/05/30 04:23:43;;;;;;;3.60;2.70;;;20.80;42.90;21.30;101697.00;;;;5011159;28;20225;-51
2023/05/30 04:26:12;;;;;;;4.63;2.33;;;20.80;42.80;21.30;101701.00;;;;5009979;28;20804;-50
2023/05/30 04:28:38;;;;;;;7.27;2.60;;;20.80;43.20;21.30;101695.00;;;;5013134;28;20203;-53
2023/05/30 04:31:07;;;;;;;5.10;2.67;;;20.80;43.50;21.20;101698.00;;;;5018807;28;20172;-51
2023/05/30 04:33:35;;;;;;;3.93;2.80;;;20.70;43.40;21.20;101702.00;;;;5012610;28;20180;-51
2023/05/30 04:36:05;;;;;;;4.83;2.97;;;20.70;43.30;21.20;101708.00;;;;5010362;28;20175;-50
2023/05/30 04:38:37;;;;;;;5.77;3.30;;;20.80;43.40;21.20;101699.00;;;;5015405;28;20898;-51
2023/05/30 04:41:03;;;;;;;6.67;3.30;;;20.80;43.10;21.20;101694.00;;;;5011361;28;20722;-51
2023/05/30 04:43:30;;;;;;;7.60;3.10;;;20.90;42.90;21.10;101696.00;;;;5011457;28;20190;-51
2023/05/30 04:45:59;;;;;;;6.07;3.50;;;20.90;42.80;21.10;101712.00;;;;5008771;28;20202;-51
2023/05/30 04:48:27;;;;;;;7.33;3.63;;;20.90;42.70;21.10;101710.00;;;;5010878;28;20194;-51
2023/05/30 04:50:53;;;;;;;6.43;3.50;;;20.90;42.60;21.10;101714.00;;;;5009525;28;20532;-51
2023/05/30 04:53:20;;;;;;;5.73;3.50;;;20.90;42.40;21.00;101721.00;;;;5011070;28;20224;-51
2023/05/30 04:55:46;;;;;;;7.13;3.70;;;20.90;42.40;21.00;101721.00;;;;5010345;28;20175;-50
2023/05/30 04:58:12;;;;;;;6.60;3.40;;;20.90;42.50;21.00;101710.00;;;;5010368;28;20625;-50
2023/05/30 05:00:38;;;;;;;4.77;3.30;;;20.90;42.20;21.00;101722.00;;;;5010206;28;20178;-50
2023/05/30 05:03:05;;;;;;;6.53;3.40;;;20.90;42.30;21.00;101707.00;;;;5010390;28;20651;-50
2023/05/30 05:05:31;;;;;;;7.10;3.30;;;20.90;42.30;20.90;101711.00;;;;5008860;28;20208;-51
2023/05/30 05:07:57;;;;;;;5.60;3.57;;;20.80;42.60;20.90;101706.00;;;;5010712;28;20719;-55
2023/05/30 05:10:22;;;;;;;8.00;3.93;;;20.80;42.00;20.90;101709.00;;;;5010927;28;20205;-51
2023/05/30 05:12:48;;;;;;;5.53;3.50;;;20.80;42.10;20.90;101714.00;;;;5009911;28;20180;-51
2023/05/30 05:15:14;;;;;;;5.70;3.30;;;20.80;42.20;20.90;101712.00;;;;5008804;28;20171;-50
2023/05/30 05:17:40;;;;;;;7.83;3.60;;;20.80;42.00;20.80;101711.00;;;;5010840;28;20617;-51
2023/05/30 05:20:07;;;;;;;6.83;3.80;;;20.70;41.90;20.80;101718.00;;;;5009626;28;20206;-50
2023/05/30 05:22:33;;;;;;;7.70;3.90;;;20.70;42.00;20.80;101716.00;;;;5010203;28;20541;-51
2023/05/30 05:24:59;;;;;;;5.87;3.33;;;20.70;42.00;20.80;101719.00;;;;5008632;28;20182;-51
2023/05/30 05:27:27;;;;;;;7.97;3.97;;;20.70;42.10;20.80;101709.00;;;;5010081;28;20194;-51
2023/05/30 05:29:53;;;;;;;7.77;3.87;;;20.70;42.30;20.70;101711.00;;;;5009793;28;20287;-51
2023/05/30 05:32:18;;;;;;;6.77;3.77;;;20.70;42.10;20.70;101713.00;;;;5010030;28;20271;-50
2023/05/30 05:34:44;;;;;;;7.13;3.70;;;20.70;42.10;20.70;101711.00;;;;5009904;28;20180;-50
2023/05/30 05:37:10;;;;;;;6.20;3.40;;;20.70;42.10;20.70;101719.00;;;;5009776;28;20184;-51
2023/05/30 05:39:36;;;;;;;8.03;4.80;;;20.60;42.10;20.70;101722.00;;;;5010177;28;20199;-51
2023/05/30 05:42:02;;;;;;;7.07;3.90;;;20.60;42.20;20.70;101722.00;;;;5010218;28;20682;-51
2023/05/30 05:44:29;;;;;;;7.63;3.87;;;20.60;42.30;20.70;101717.00;;;;5009489;28;20253;-50
2023/05/30 05:46:56;;;;;;;6.17;3.60;;;20.60;42.10;20.60;101642.00;;;;5009423;28;20219;-50
2023/05/30 05:49:21;;;;;;;7.00;3.93;;;20.60;42.30;20.60;101730.00;;;;5009567;28;20293;-51
2023/05/30 05:51:47;;;;;;;7.43;3.97;;;20.60;42.00;20.60;101726.00;;;;5010144;28;20207;-50
2023/05/30 05:54:13;;;;;;;5.73;3.40;;;20.60;42.10;20.60;101727.00;;;;5009630;28;20185;-50
2023/05/30 05:56:38;;;;;;;8.17;3.80;;;20.50;42.20;20.60;101719.00;;;;5008197;28;20220;-51
2023/05/30 05:59:04;;;;;;;6.53;3.50;;;20.50;42.30;20.50;101722.00;;;;5009136;28;20233;-51
2023/05/30 06:01:30;;;;;;;7.70;3.93;;;20.40;42.30;20.50;101725.00;;;;5009822;28;20711;-51
2023/05/30 06:03:56;;;;;;;5.53;3.07;;;20.40;42.40;20.50;101727.00;;;;5009431;28;20191;-51
2023/05/30 06:06:21;;;;;;;6.63;3.73;;;20.40;42.30;20.30;101725.00;;;;5010436;28;20216;-51
2023/05/30 06:08:47;;;;;;;6.40;3.90;;;20.40;42.40;20.50;101732.00;;;;5008393;28;20202;-50
2023/05/30 06:11:13;;;;;;;5.80;3.70;;;20.40;42.50;20.50;101744.00;;;;5008831;28;20185;-52
2023/05/30 06:13:40;;;;;;;7.93;3.90;;;20.40;42.40;20.50;101736.00;;;;5010573;28;20186;-51
2023/05/30 06:16:05;;;;;;;5.80;3.60;;;20.40;42.40;20.40;101737.00;;;;5020014;28;20235;-51
2023/05/30 06:18:31;;;;;;;6.70;3.63;;;20.40;42.30;20.40;101742.00;;;;5010299;28;20254;-51
2023/05/30 06:20:57;;;;;;;7.33;3.67;;;20.40;42.40;20.40;101747.00;;;;5009794;28;20180;-50
2023/05/30 06:23:23;;;;;;;8.83;4.17;;;20.30;42.40;20.40;101749.00;;;;5009921;28;20184;-51
2023/05/30 06:25:48;;;;;;;7.17;3.80;;;20.30;43.00;20.40;101742.00;;;;5009156;28;20296;-51
2023/05/30 06:28:14;;;;;;;6.30;3.60;;;20.40;42.40;20.30;101743.00;;;;4993169;28;20231;-51
2023/05/30 06:30:40;;;;;;;6.17;3.90;;;20.30;42.30;20.30;101747.00;;;;5018607;28;20223;-51
2023/05/30 06:33:05;;;;;;;7.23;3.73;;;20.30;42.50;20.10;101754.00;;;;5009711;28;20187;-51
2023/05/30 06:35:31;;;;;;;6.77;3.50;;;20.30;42.50;20.30;101744.00;;;;5008456;28;20203;-51
2023/05/30 06:37:57;;;;;;;6.60;3.90;;;20.20;42.70;20.30;101745.00;;;;5008554;28;20564;-51
2023/05/30 06:40:23;;;;;;;7.30;4.17;;;20.20;42.70;20.30;101747.00;;;;5009090;28;20693;-50
2023/05/30 06:42:48;;;;;;;8.93;3.77;;;20.20;42.90;20.20;101748.00;;;;5009047;28;20186;-50
2023/05/30 06:45:14;;;;;;;5.70;3.87;;;20.20;43.00;20.20;101746.00;;;;5003590;28;20255;-50
2023/05/30 06:47:40;;;;;;;5.67;3.50;;;20.20;43.00;20.20;101753.00;;;;5009193;28;20171;-50
2023/05/30 06:50:07;;;;;;;7.00;4.07;;;20.10;43.10;20.20;101748.00;;;;5012026;28;20685;-50
2023/05/30 06:52:33;;;;;;;6.37;3.70;;;20.10;43.20;20.20;101744.00;;;;5009430;28;20555;-51
2023/05/30 06:54:59;;;;;;;6.33;4.03;;;20.10;43.20;20.20;101751.00;;;;5008437;28;20276;-51
2023/05/30 06:57:25;;;;;;;7.27;4.10;;;20.10;43.20;20.20;101755.00;;;;5009314;28;20183;-50
2023/05/30 06:59:50;;;;;;;7.13;3.50;;;20.10;43.30;20.20;101755.00;;;;5007519;28;20200;-50
2023/05/30 07:02:16;;;;;;;7.53;3.90;;;20.00;43.20;20.10;101755.00;;;;5008719;28;20215;-50
2023/05/30 07:04:42;;;;;;;7.33;3.87;;;20.00;43.30;20.10;101758.00;;;;5012813;28;20561;-50
2023/05/30 07:07:08;;;;;;;6.07;3.87;;;20.00;43.50;20.10;101754.00;;;;5010362;28;20208;-50
2023/05/30 07:09:34;;;;;;;6.13;3.60;;;20.00;43.40;20.10;101757.00;;;;5008755;28;20222;-50
2023/05/30 07:12:00;;;;;;;6.53;3.60;;;20.00;43.50;20.10;101752.00;;;;5008614;28;20184;-50
2023/05/30 07:14:26;;;;;;;5.90;3.70;;;20.00;43.50;20.10;101753.00;;;;5009809;28;20183;-51
2023/05/30 07:16:52;;;;;;;6.70;3.70;;;20.00;43.60;20.10;101749.00;;;;5012789;28;20241;-51
2023/05/30 07:19:18;;;;;;;9.23;3.87;;;20.00;43.50;20.10;101751.00;;;;5012570;28;20211;-50
2023/05/30 07:21:43;;;;;;;7.80;3.70;;;20.00;43.60;20.00;101759.00;;;;5012729;28;20301;-51
2023/05/30 07:24:09;;;;;;;6.93;4.03;;;19.90;43.50;20.00;101761.00;;;;5012161;28;20716;-51
2023/05/30 07:26:35;;;;;;;7.80;4.10;;;19.90;43.60;20.00;101769.00;;;;5011218;28;20211;-50
2023/05/30 07:29:01;;;;;;;7.40;3.63;;;19.90;43.70;20.00;101761.00;;;;5012337;28;20192;-51
2023/05/30 07:31:27;;;;;;;9.13;3.93;;;19.80;43.70;20.10;101767.00;;;;5012430;28;20191;-51
2023/05/30 07:33:53;;;;;;;5.83;3.57;;;19.80;44.30;20.10;101766.00;;;;5010321;28;20283;-51
2023/05/30 07:36:18;;;;;;;8.00;3.70;;;19.80;44.60;20.10;101765.00;;;;5011884;28;20183;-51
2023/05/30 07:38:44;;;;;;;9.17;4.00;;;19.80;44.70;20.20;101763.00;;;;5016366;28;20655;-51
2023/05/30 07:41:10;;;;;;;5.77;3.70;;;19.70;44.90;20.20;101761.00;;;;5013389;28;20658;-50
2023/05/30 07:43:36;;;;;;;4.07;3.27;;;19.80;45.20;20.20;101766.00;;;;5011672;28;20183;-49
2023/05/30 07:46:01;;;;;;;9.77;3.83;;;19.80;44.90;20.20;101786.00;;;;5011913;28;20235;-52
2023/05/30 07:48:27;;;;;;;8.43;4.10;;;19.80;44.80;20.10;101765.00;;;;5010460;28;20203;-52
2023/05/30 07:50:53;;;;;;;6.10;3.97;;;19.80;44.70;20.10;101771.00;;;;5011741;28;20191;-50
2023/05/30 07:53:18;;;;;;;7.27;4.00;;;19.70;44.70;20.10;101775.00;;;;5011173;28;20179;-51
2023/05/30 07:55:46;;;;;;;6.43;3.63;;;19.80;44.70;20.10;101760.00;;;;5016925;28;20679;-51
2023/05/30 07:58:11;;;;;;;6.47;3.57;;;19.70;44.90;20.10;101764.00;;;;5011588;28;20179;-51
2023/05/30 08:00:37;;;;;;;7.90;3.93;;;19.60;45.00;20.10;101761.00;;;;5011739;28;20191;-51
2023/05/30 08:03:03;;;;;;;9.10;4.10;;;19.70;45.00;20.20;101769.00;;;;5011510;28;20202;-50
2023/05/30 08:05:28;;;;;;;5.50;3.40;;;19.70;45.10;20.20;101764.00;;;;5011629;28;20728;-51
2023/05/30 08:07:54;;;;;;;5.37;3.47;;;19.70;45.10;20.20;101767.00;;;;5011376;28;20187;-51
2023/05/30 08:10:20;;;;;;;6.77;3.57;;;19.70;45.10;20.20;101763.00;;;;5011551;28;20223;-52
2023/05/30 08:12:46;;;;;;;5.43;3.33;;;19.60;45.10;20.20;101755.00;;;;5012945;28;20558;-51
2023/05/30 08:15:11;;;;;;;9.87;3.70;;;19.70;45.40;20.20;101761.00;;;;5019564;28;20188;-51
2023/05/30 08:17:40;;;;;;;8.27;3.70;;;19.70;45.30;20.20;101751.00;;;;5012111;28;20278;-51
2023/05/30 08:20:08;;;;;;;7.33;3.87;;;19.60;44.80;20.10;101755.00;;;;5011683;28;20761;-52
2023/05/30 08:22:34;;;;;;;7.63;4.10;;;19.70;45.10;20.10;101762.00;;;;5010697;28;20223;-52
2023/05/30 08:25:00;;;;;;;5.10;3.53;;;19.60;45.10;20.10;101763.00;;;;5010409;28;20215;-51
2023/05/30 08:27:26;;;;;;;5.90;3.60;;;19.60;45.10;20.10;101759.00;;;;5013356;28;20195;-51
2023/05/30 08:29:53;;;;;;;7.47;3.77;;;19.60;45.30;20.20;101753.00;;;;5014464;28;20578;-50
2023/05/30 08:32:18;;;;;;;5.50;3.73;;;19.60;45.40;20.20;101751.00;;;;5015522;28;20562;-50
2023/05/30 08:34:45;;;;;;;6.77;3.73;;;19.60;45.10;20.10;101743.00;;;;5011747;28;20187;-51
2023/05/30 08:37:11;;;;;;;5.43;3.67;;;19.60;45.20;20.10;101740.00;;;;5011070;28;20667;-51
2023/05/30 08:39:37;;;;;;;6.43;3.73;;;19.60;45.10;20.10;101731.00;;;;5015845;28;20282;-51
2023/05/30 08:42:04;;;;;;;6.23;3.73;;;19.60;45.40;20.10;101748.00;;;;5010815;28;20195;-52
2023/05/30 08:44:30;;;;;;;6.17;4.03;;;19.60;45.30;20.10;101763.00;;;;5009172;28;20322;-52
2023/05/30 08:46:56;;;;;;;9.37;4.50;;;19.60;45.50;20.10;101760.00;;;;5009322;28;20311;-51
2023/05/30 08:49:23;;;;;;;6.00;4.27;;;19.60;45.20;20.00;101749.00;;;;5009636;28;20312;-52
2023/05/30 08:51:49;;;;;;;7.00;3.80;;;19.60;45.50;20.10;101745.00;;;;5010479;28;20183;-52
2023/05/30 08:54:22;;;;;;;6.10;3.90;;;19.60;45.50;20.10;101739.00;;;;5010338;28;20207;-51
2023/05/30 08:57:09;;;;;;;6.57;3.90;;;19.60;45.50;20.10;101744.00;;;;5010825;28;20191;-51
2023/05/30 08:59:35;;;;;;;4.80;3.53;;;19.60;45.50;20.10;101737.00;;;;5009193;28;20709;-51
2023/05/30 09:02:01;;;;;;;5.33;3.80;;;19.60;45.50;20.10;101737.00;;;;4993074;28;20186;-51
2023/05/30 09:04:26;;;;;;;6.50;4.03;;;19.60;45.30;20.10;101751.00;;;;4976691;28;20184;-51
2023/05/30 09:06:54;;;;;;;6.57;3.90;;;19.60;45.20;20.10;101744.00;;;;5009634;28;20625;-51
2023/05/30 09:09:21;;;;;;;6.83;3.60;;;19.60;45.50;20.10;101743.00;;;;5010542;28;20191;-52
2023/05/30 09:11:46;;;;;;;7.50;4.13;;;19.60;45.30;20.10;101742.00;;;;4993315;28;20211;-52
2023/05/30 09:14:12;;;;;;;5.70;3.87;;;19.60;45.10;20.10;101742.00;;;;5008791;28;20264;-51
2023/05/30 09:16:38;;;;;;;5.80;3.80;;;19.60;45.10;20.10;101729.00;;;;5010716;28;20646;-51
2023/05/30 09:19:04;;;;;;;5.53;3.60;;;19.60;45.90;20.10;101745.00;;;;5009376;28;20195;-51
2023/05/30 09:21:33;;;;;;;5.73;4.27;;;19.60;45.10;20.20;101731.00;;;;5010469;28;20187;-51
2023/05/30 09:24:05;;;;;;;7.30;4.00;;;19.60;45.20;20.20;101722.00;;;;5008639;28;20183;-51
2023/05/30 09:26:32;;;;;;;6.90;4.30;;;19.60;45.10;20.20;101734.00;;;;5010011;28;20571;-50
2023/05/30 09:29:09;;;;;;;5.70;3.93;;;19.60;45.10;20.20;101726.00;;;;5010267;28;20199;-51
2023/05/30 09:31:36;;;;;;;7.70;3.83;;;19.60;45.10;20.20;101728.00;;;;5010097;28;20248;-51
2023/05/30 09:34:01;;;;;;;6.23;4.10;;;19.70;45.20;20.30;101728.00;;;;5008179;28;20186;-51
2023/05/30 09:36:28;;;;;;;5.43;3.90;;;19.80;45.30;20.30;101727.00;;;;5008564;28;20188;-51
2023/05/30 09:39:05;;;;;;;6.90;4.10;;;19.80;45.20;20.30;101733.00;;;;5015192;28;20194;-51
2023/05/30 09:41:31;;;;;;;6.80;4.07;;;19.70;45.20;20.30;101725.00;;;;5003466;28;20187;-51
2023/05/30 09:43:57;;;;;;;5.87;3.93;;;19.70;45.20;20.30;101731.00;;;;5008110;28;20195;-51
2023/05/30 09:46:29;;;;;;;6.23;4.07;;;19.70;45.30;20.40;101727.00;;;;5009358;28;20212;-51
2023/05/30 09:48:55;;;;;;;6.67;4.27;;;19.80;45.70;20.40;101730.00;;;;5008649;28;20618;-51
2023/05/30 09:51:22;;;;;;;8.77;4.57;;;19.80;45.60;20.40;101724.00;;;;5008716;28;20262;-51
2023/05/30 09:54:01;;;;;;;7.40;4.13;;;19.80;46.60;20.50;101723.00;;;;5009013;28;20569;-51
2023/05/30 09:56:37;;;;;;;6.47;4.60;;;19.80;46.60;20.50;101737.00;;;;5002657;28;20233;-51
2023/05/30 09:59:07;;;;;;;5.90;4.40;;;19.80;46.60;20.50;101729.00;;;;5009806;28;20615;-51
2023/05/30 10:01:44;;;;;;;6.83;4.00;;;19.80;46.30;20.50;101710.00;;;;5009794;28;20183;-51
2023/05/30 10:04:23;;;;;;;7.23;4.70;;;19.90;46.40;20.50;101711.00;;;;5010097;28;20673;-51
2023/05/30 10:06:54;;;;;;;5.83;3.87;;;19.90;46.60;20.50;101712.00;;;;5010046;28;20210;-51
2023/05/30 10:09:21;;;;;;;4.93;3.70;;;19.90;46.60;20.50;101711.00;;;;5010204;28;20574;-51
2023/05/30 10:11:47;;;;;;;6.20;4.23;;;19.90;46.40;20.60;101708.00;;;;5010123;28;20187;-51
2023/05/30 10:14:13;;;;;;;6.97;4.23;;;19.90;46.50;20.60;101709.00;;;;5016914;28;20180;-51
2023/05/30 10:16:46;;;;;;;6.27;4.10;;;19.90;46.60;20.60;101713.00;;;;5013737;28;20187;-51
2023/05/30 10:19:16;;;;;;;7.33;4.10;;;19.90;46.60;20.60;101707.00;;;;5010037;28;20287;-51
2023/05/30 10:21:42;;;;;;;8.97;5.10;;;19.90;47.20;20.60;101707.00;;;;5008802;28;20184;-51
2023/05/30 10:24:10;;;;;;;7.30;4.83;;;19.90;46.40;20.60;101692.00;;;;4992003;28;20188;-51
2023/05/30 10:26:37;;;;;;;5.23;4.17;;;19.90;46.60;20.60;101714.00;;;;4975989;28;20751;-50
2023/05/30 10:29:08;;;;;;;6.17;4.30;;;19.90;46.60;20.60;101698.00;;;;5013538;28;20200;-51
2023/05/30 10:31:34;;;;;;;5.47;4.17;;;19.90;46.60;20.60;101708.00;;;;5010017;28;20229;-51
2023/05/30 10:34:02;;;;;;;6.27;4.17;;;19.90;46.40;20.60;101691.00;;;;4975763;28;20176;-51
2023/05/30 10:36:28;;;;;;;7.17;3.90;;;19.90;46.40;20.70;101696.00;;;;5008300;28;20699;-51
2023/05/30 10:39:33;;;;;;;6.37;4.07;;;19.90;46.40;20.70;101707.00;;;;4991848;28;20196;-51
2023/05/30 10:42:14;;;;;;;6.33;4.20;;;19.90;46.40;20.70;101712.00;;;;4996152;28;20271;-51
2023/05/30 10:45:13;;;;;;;5.13;4.13;;;20.00;46.70;20.70;101698.00;;;;5008407;28;20187;-51
2023/05/30 10:48:12;;;;;;;6.07;4.10;;;20.00;45.80;20.70;101699.00;;;;4992365;28;20180;-51
2023/05/30 10:50:41;;;;;;;5.70;3.77;;;20.00;45.40;20.70;101697.00;;;;5019510;28;20274;-51